createdAt,value
2019-05-11T00:00:32.419Z,12.68
2019-05-11T00:03:01.107Z,12.59
2019-05-11T00:05:29.536Z,12.54
2019-05-11T00:07:57.963Z,12.34
2019-05-11T00:10:26.430Z,12.45
2019-05-11T00:12:54.855Z,12.38
2019-05-11T00:15:23.283Z,12.48
2019-05-11T00:17:51.739Z,12.51
2019-05-11T00:20:20.175Z,12.50
2019-05-11T00:22:48.598Z,12.41
2019-05-11T00:25:17.068Z,12.72
2019-05-11T00:27:45.475Z,12.70
2019-05-11T00:30:14.650Z,12.57
2019-05-11T00:32:43.121Z,12.58
2019-05-11T00:35:11.768Z,12.63
2019-05-11T00:37:40.204Z,12.60
2019-05-11T00:40:14.288Z,12.67
2019-05-11T00:42:39.681Z,12.52
2019-05-11T00:45:08.283Z,12.57
2019-05-11T00:47:36.738Z,12.57
2019-05-11T00:50:08.349Z,12.40
2019-05-11T00:52:36.863Z,12.54
2019-05-11T00:55:07.010Z,12.48
2019-05-11T00:57:35.492Z,12.43
2019-05-11T01:00:05.461Z,12.43
2019-05-11T01:02:34.078Z,12.33
2019-05-11T01:05:02.532Z,12.23
2019-05-11T01:07:31.118Z,12.35
2019-05-11T01:09:59.569Z,12.42
2019-05-11T01:12:28.112Z,12.47
2019-05-11T01:14:56.533Z,12.45
2019-05-11T01:17:24.988Z,12.37
2019-05-11T01:19:53.999Z,12.38
2019-05-11T01:22:22.427Z,12.43
2019-05-11T01:24:50.920Z,12.32
2019-05-11T01:27:19.422Z,12.29
2019-05-11T01:29:47.851Z,12.27
2019-05-11T01:32:16.299Z,12.08
2019-05-11T01:34:44.795Z,12.08
2019-05-11T01:37:13.226Z,12.04
2019-05-11T01:39:41.747Z,12.19
2019-05-11T01:42:10.174Z,11.91
2019-05-11T01:44:38.599Z,11.96
2019-05-11T01:47:07.148Z,12.19
2019-05-11T01:49:35.577Z,12.01
2019-05-11T01:52:04.089Z,11.94
2019-05-11T01:54:32.555Z,11.76
2019-05-11T01:57:00.991Z,11.97
2019-05-11T01:59:29.425Z,11.72
2019-05-11T02:01:57.898Z,11.96
2019-05-11T02:04:26.336Z,11.64
2019-05-11T02:06:54.760Z,11.63
2019-05-11T02:09:23.227Z,11.58
2019-05-11T02:11:51.670Z,11.87
2019-05-11T02:14:20.104Z,11.70
2019-05-11T02:16:48.641Z,11.61
2019-05-11T02:19:17.073Z,11.72
2019-05-11T02:21:45.507Z,11.50
2019-05-11T02:24:14.087Z,11.68
2019-05-11T02:26:42.592Z,11.51
2019-05-11T02:29:11.028Z,11.32
2019-05-11T02:31:39.506Z,11.23
2019-05-11T02:34:07.949Z,11.08
2019-05-11T02:36:36.382Z,11.01
2019-05-11T02:39:07.158Z,11.19
2019-05-11T02:41:37.442Z,11.26
2019-05-11T02:44:06.354Z,11.00
2019-05-11T02:46:34.980Z,10.93
2019-05-11T02:49:03.690Z,10.86
2019-05-11T02:51:32.392Z,10.70
2019-05-11T02:54:02.423Z,10.65
2019-05-11T02:56:30.931Z,10.56
2019-05-11T02:58:59.343Z,10.58
2019-05-11T03:01:27.936Z,10.54
2019-05-11T03:03:56.372Z,10.56
2019-05-11T03:06:24.943Z,10.69
2019-05-11T03:08:53.541Z,10.81
2019-05-11T03:11:21.974Z,11.03
2019-05-11T03:13:50.479Z,10.96
2019-05-11T03:16:19.005Z,11.06
2019-05-11T03:18:47.454Z,11.08
2019-05-11T03:21:15.873Z,11.02
2019-05-11T03:23:44.398Z,10.87
2019-05-11T03:26:12.823Z,10.93
2019-05-11T03:28:41.263Z,11.06
2019-05-11T03:31:09.811Z,10.98
2019-05-11T03:33:38.249Z,10.89
2019-05-11T03:36:06.678Z,10.83
2019-05-11T03:38:35.139Z,10.85
2019-05-11T03:41:03.644Z,10.70
2019-05-11T03:43:32.085Z,10.78
2019-05-11T03:46:00.697Z,10.81
2019-05-11T03:48:29.131Z,10.90
2019-05-11T03:50:57.570Z,11.02
2019-05-11T03:53:26.077Z,11.19
2019-05-11T03:55:54.555Z,11.17
2019-05-11T03:58:26.334Z,11.06
2019-05-11T04:00:53.337Z,11.41
2019-05-11T04:03:21.792Z,11.36
2019-05-11T04:05:50.302Z,11.40
2019-05-11T04:08:18.749Z,11.22
2019-05-11T04:10:47.210Z,11.31
2019-05-11T04:13:15.604Z,11.40
2019-05-11T04:15:44.200Z,11.54
2019-05-11T04:18:12.678Z,11.55
2019-05-11T04:20:41.108Z,11.63
2019-05-11T04:23:09.588Z,11.60
2019-05-11T04:25:38.015Z,11.67
2019-05-11T04:28:06.736Z,11.53
2019-05-11T04:30:35.195Z,11.36
2019-05-11T04:33:03.679Z,11.49
2019-05-11T04:35:32.100Z,11.17
2019-05-11T04:38:00.565Z,11.06
2019-05-11T04:40:29.561Z,11.20
2019-05-11T04:42:57.989Z,11.12
2019-05-11T04:45:26.609Z,11.28
2019-05-11T04:47:55.047Z,11.20
2019-05-11T04:50:23.462Z,11.31
2019-05-11T04:52:52.052Z,11.20
2019-05-11T04:55:20.477Z,11.20
2019-05-11T04:57:48.906Z,11.21
2019-05-11T05:00:17.536Z,11.46
2019-05-11T05:02:46.152Z,11.19
2019-05-11T05:05:14.804Z,11.17
2019-05-11T05:07:49.350Z,11.37
2019-05-11T05:10:19.360Z,11.42
2019-05-11T05:12:50.486Z,11.53
2019-05-11T05:15:14.301Z,11.57
2019-05-11T05:17:42.758Z,11.31
2019-05-11T05:20:11.423Z,11.31
2019-05-11T05:22:39.880Z,11.42
2019-05-11T05:25:08.750Z,11.72
2019-05-11T05:27:37.172Z,11.43
2019-05-11T05:30:07.254Z,11.43
2019-05-11T05:32:35.902Z,11.54
2019-05-11T05:35:05.899Z,11.52
2019-05-11T05:37:34.352Z,11.49
2019-05-11T05:40:02.848Z,11.90
2019-05-11T05:42:31.270Z,11.38
2019-05-11T05:44:59.735Z,11.32
2019-05-11T05:47:28.159Z,11.20
2019-05-11T05:49:56.590Z,11.30
2019-05-11T05:52:25.290Z,11.56
2019-05-11T05:54:53.724Z,11.51
2019-05-11T05:57:22.163Z,11.63
2019-05-11T05:59:50.768Z,11.64
2019-05-11T06:02:19.202Z,11.57
2019-05-11T06:04:47.627Z,11.50
2019-05-11T06:07:16.197Z,11.43
2019-05-11T06:09:44.625Z,11.44
2019-05-11T06:12:13.125Z,11.48
2019-05-11T06:14:41.607Z,11.53
2019-05-11T06:17:10.075Z,11.55
2019-05-11T06:19:38.603Z,11.77
2019-05-11T06:22:07.036Z,12.01
2019-05-11T06:24:35.484Z,11.80
2019-05-11T06:27:03.986Z,12.11
2019-05-11T06:29:32.509Z,11.71
2019-05-11T06:32:00.936Z,11.44
2019-05-11T06:34:29.361Z,11.71
2019-05-11T06:36:57.886Z,12.13
2019-05-11T06:39:26.907Z,12.38
2019-05-11T06:41:55.338Z,12.04
2019-05-11T06:44:23.847Z,11.69
2019-05-11T06:46:52.370Z,11.85
2019-05-11T06:49:20.787Z,12.15
2019-05-11T06:51:49.231Z,12.07
2019-05-11T06:54:17.765Z,11.96
2019-05-11T06:56:46.225Z,11.90
2019-05-11T06:59:14.751Z,12.09
2019-05-11T07:01:43.266Z,12.14
2019-05-11T07:04:11.793Z,12.13
2019-05-11T07:06:40.268Z,12.02
2019-05-11T07:09:08.958Z,11.96
2019-05-11T07:11:37.424Z,12.20
2019-05-11T07:14:20.008Z,12.28
2019-05-11T07:16:36.526Z,12.39
2019-05-11T07:19:05.023Z,12.34
2019-05-11T07:21:33.724Z,12.12
2019-05-11T07:24:02.153Z,12.38
2019-05-11T07:26:30.588Z,12.34
2019-05-11T07:28:59.065Z,12.64
2019-05-11T07:31:27.564Z,12.79
2019-05-11T07:33:56.000Z,12.45
2019-05-11T07:36:24.458Z,12.28
2019-05-11T07:38:52.884Z,12.02
2019-05-11T07:41:21.306Z,12.30
2019-05-11T07:43:49.759Z,12.05
2019-05-11T07:46:18.370Z,12.33
2019-05-11T07:48:47.953Z,12.22
2019-05-11T07:51:18.289Z,12.37
2019-05-11T07:53:48.642Z,12.43
2019-05-11T07:56:18.694Z,12.32
2019-05-11T07:58:48.080Z,12.35
2019-05-11T08:01:18.934Z,12.43
2019-05-11T08:03:48.258Z,12.60
2019-05-11T08:06:18.241Z,12.53
2019-05-11T08:08:49.042Z,12.58
2019-05-11T08:11:18.268Z,12.55
2019-05-11T08:13:48.053Z,12.63
2019-05-11T08:16:18.578Z,12.65
2019-05-11T08:18:48.151Z,12.50
2019-05-11T08:21:17.862Z,12.41
2019-05-11T08:23:48.323Z,12.50
2019-05-11T08:26:18.794Z,12.52
2019-05-11T08:28:48.602Z,12.73
2019-05-11T08:31:18.660Z,12.74
2019-05-11T08:33:47.993Z,12.81
2019-05-11T08:36:18.336Z,13.04
2019-05-11T08:38:48.280Z,13.11
2019-05-11T08:41:18.410Z,13.34
2019-05-11T08:43:48.076Z,13.47
2019-05-11T08:46:18.513Z,13.33
2019-05-11T08:48:47.861Z,13.63
2019-05-11T08:51:18.736Z,13.38
2019-05-11T08:53:48.065Z,13.40
2019-05-11T08:56:18.683Z,13.13
2019-05-11T08:58:49.120Z,13.01
2019-05-11T09:01:18.319Z,12.75
2019-05-11T09:03:47.817Z,12.84
2019-05-11T09:06:17.925Z,12.79
2019-05-11T09:08:49.104Z,12.69
2019-05-11T09:11:18.810Z,12.74
2019-05-11T09:13:48.862Z,12.77
2019-05-11T09:16:18.981Z,12.82
2019-05-11T09:18:48.027Z,12.86
2019-05-11T09:21:19.083Z,13.00
2019-05-11T09:23:48.542Z,13.04
2019-05-11T09:26:18.131Z,13.18
2019-05-11T09:28:47.563Z,12.90
2019-05-11T09:31:18.602Z,12.85
2019-05-11T09:33:47.972Z,13.03
2019-05-11T09:36:18.065Z,13.13
2019-05-11T09:38:48.759Z,13.33
2019-05-11T09:41:18.018Z,13.22
2019-05-11T09:43:48.352Z,13.05
2019-05-11T09:46:18.914Z,13.20
2019-05-11T09:48:48.373Z,13.23
2019-05-11T09:51:18.438Z,13.32
2019-05-11T09:53:48.217Z,13.01
2019-05-11T09:56:18.303Z,13.12
2019-05-11T09:58:47.954Z,13.19
2019-05-11T10:01:18.289Z,13.30
2019-05-11T10:03:48.150Z,13.24
2019-05-11T10:06:19.011Z,13.07
2019-05-11T10:08:48.623Z,13.03
2019-05-11T10:11:18.917Z,13.07
2019-05-11T10:13:47.937Z,13.18
2019-05-11T10:16:17.902Z,13.43
2019-05-11T10:18:48.919Z,13.42
2019-05-11T10:21:18.837Z,13.58
2019-05-11T10:23:49.036Z,13.63
2019-05-11T10:26:18.814Z,13.28
2019-05-11T10:28:48.121Z,13.82
2019-05-11T10:31:18.003Z,13.71
2019-05-11T10:33:48.918Z,14.25
2019-05-11T10:36:18.871Z,14.35
2019-05-11T10:38:48.719Z,14.30
2019-05-11T10:41:18.335Z,14.46
2019-05-11T10:43:49.006Z,14.40
2019-05-11T10:46:23.090Z,14.20
2019-05-11T10:48:48.311Z,14.40
2019-05-11T10:51:18.386Z,14.07
2019-05-11T10:53:51.327Z,13.85
2019-05-11T10:56:17.988Z,13.97
2019-05-11T10:58:48.306Z,13.53
2019-05-11T11:01:18.106Z,13.30
2019-05-11T11:03:48.424Z,13.45
2019-05-11T11:06:18.866Z,13.32
2019-05-11T11:08:48.862Z,13.31
2019-05-11T11:11:18.570Z,13.53
2019-05-11T11:13:48.321Z,13.58
2019-05-11T11:16:32.694Z,13.21
2019-05-11T11:18:48.646Z,13.22
2019-05-11T11:21:22.545Z,13.17
2019-05-11T11:23:48.209Z,13.40
2019-05-11T11:26:18.422Z,13.43
2019-05-11T11:28:47.714Z,13.02
2019-05-11T11:31:18.741Z,12.84
2019-05-11T11:33:48.880Z,12.77
2019-05-11T11:36:17.970Z,12.79
2019-05-11T11:38:47.868Z,12.59
2019-05-11T11:41:18.597Z,12.55
2019-05-11T11:43:48.390Z,12.72
2019-05-11T11:46:18.717Z,12.58
2019-05-11T11:48:48.781Z,12.38
2019-05-11T11:51:18.809Z,12.36
2019-05-11T11:53:47.947Z,12.29
2019-05-11T11:56:18.880Z,12.33
2019-05-11T11:58:48.732Z,12.26
2019-05-11T12:01:18.996Z,12.38
2019-05-11T12:03:48.811Z,12.71
2019-05-11T12:06:18.300Z,12.55
2019-05-11T12:08:49.696Z,12.68
2019-05-11T12:11:18.790Z,12.54
2019-05-11T12:13:47.764Z,12.73
2019-05-11T12:16:18.021Z,12.57
2019-05-11T12:18:48.626Z,12.40
2019-05-11T12:21:18.522Z,12.47
2019-05-11T12:23:48.586Z,12.67
2019-05-11T12:26:18.525Z,12.89
2019-05-11T12:28:49.055Z,12.60
2019-05-11T12:31:18.491Z,12.54
2019-05-11T12:33:48.410Z,12.59
2019-05-11T12:36:18.842Z,12.88
2019-05-11T12:38:48.856Z,12.95
2019-05-11T12:41:18.977Z,12.77
2019-05-11T12:43:48.920Z,12.85
2019-05-11T12:46:18.890Z,12.94
2019-05-11T12:48:48.451Z,13.00
2019-05-11T12:51:18.614Z,13.15
2019-05-11T12:53:47.757Z,13.00
2019-05-11T12:56:18.753Z,12.81
2019-05-11T12:58:48.952Z,12.73
2019-05-11T13:01:18.735Z,12.80
2019-05-11T13:03:49.214Z,13.10
2019-05-11T13:06:19.341Z,12.98
2019-05-11T13:08:48.345Z,12.90
2019-05-11T13:11:18.683Z,12.72
2019-05-11T13:13:48.433Z,12.76
2019-05-11T13:16:18.388Z,12.70
2019-05-11T13:18:48.714Z,12.37
2019-05-11T13:21:18.285Z,12.47
2019-05-11T13:23:48.931Z,12.13
2019-05-11T13:26:17.990Z,12.19
2019-05-11T13:28:48.362Z,12.35
2019-05-11T13:31:18.731Z,12.04
2019-05-11T13:33:47.990Z,12.10
2019-05-11T13:36:18.583Z,12.07
2019-05-11T13:38:48.389Z,12.11
2019-05-11T13:41:18.763Z,12.12
2019-05-11T13:43:48.597Z,12.18
2019-05-11T13:46:17.924Z,12.09
2019-05-11T13:48:47.632Z,12.19
2019-05-11T13:51:18.302Z,12.11
2019-05-11T13:53:48.199Z,12.13
2019-05-11T13:56:18.380Z,11.92
2019-05-11T13:58:48.874Z,12.02
2019-05-11T14:01:18.528Z,12.01
2019-05-11T14:03:48.381Z,11.89
2019-05-11T14:06:18.454Z,11.88
2019-05-11T14:08:48.236Z,11.83
2019-05-11T14:11:18.176Z,11.78
2019-05-11T14:13:47.988Z,11.95
2019-05-11T14:16:18.581Z,12.10
2019-05-11T14:18:48.839Z,11.98
2019-05-11T14:21:18.576Z,12.00
2019-05-11T14:23:48.368Z,12.00
2019-05-11T14:26:19.254Z,11.96
2019-05-11T14:28:48.104Z,11.77
2019-05-11T14:31:18.878Z,11.88
2019-05-11T14:33:48.926Z,11.88
2019-05-11T14:36:18.430Z,11.71
2019-05-11T14:38:48.671Z,11.83
2019-05-11T14:41:18.236Z,12.02
2019-05-11T14:43:49.031Z,11.99
2019-05-11T14:46:18.131Z,11.82
2019-05-11T14:48:48.112Z,11.91
2019-05-11T14:51:18.011Z,11.92
2019-05-11T14:53:48.158Z,11.92
2019-05-11T14:56:18.998Z,11.81
2019-05-11T14:58:49.010Z,11.85
2019-05-11T15:01:18.297Z,11.63
2019-05-11T15:03:48.557Z,11.45
2019-05-11T15:06:18.808Z,11.51
2019-05-11T15:08:47.898Z,11.51
2019-05-11T15:11:18.897Z,11.69
2019-05-11T15:13:48.734Z,11.63
2019-05-11T15:16:18.786Z,11.79
2019-05-11T15:18:48.438Z,11.63
2019-05-11T15:21:18.907Z,11.77
2019-05-11T15:23:47.786Z,11.59
2019-05-11T15:26:18.729Z,11.74
2019-05-11T15:28:48.545Z,11.76
2019-05-11T15:31:21.938Z,11.71
2019-05-11T15:33:48.820Z,11.84
2019-05-11T15:36:19.299Z,12.02
2019-05-11T15:38:48.268Z,11.93
2019-05-11T15:41:17.772Z,11.89
2019-05-11T15:43:48.050Z,11.94
2019-05-11T15:46:19.403Z,12.07
2019-05-11T15:48:58.464Z,12.13
2019-05-11T15:51:18.724Z,11.90
2019-05-11T15:53:47.655Z,12.01
2019-05-11T15:56:19.015Z,11.90
2019-05-11T15:58:48.630Z,12.03
2019-05-11T16:01:18.543Z,11.76
2019-05-11T16:03:49.916Z,12.07
2019-05-11T16:06:18.578Z,12.07
2019-05-11T16:08:47.492Z,11.90
2019-05-11T16:11:18.001Z,11.95
2019-05-11T16:13:48.325Z,11.96
2019-05-11T16:16:16.304Z,12.07
2019-05-11T16:18:44.762Z,12.05
2019-05-11T16:21:13.189Z,12.09
2019-05-11T16:23:41.700Z,11.97
2019-05-11T16:26:10.323Z,11.93
2019-05-11T16:28:38.757Z,11.95
2019-05-11T16:31:09.125Z,11.71
2019-05-11T16:33:37.556Z,11.63
2019-05-11T16:36:08.795Z,11.62
2019-05-11T16:38:38.021Z,11.62
2019-05-11T16:41:08.971Z,11.55
2019-05-11T16:43:38.551Z,11.68
2019-05-11T16:46:08.729Z,11.83
2019-05-11T16:48:38.277Z,12.07
2019-05-11T16:51:08.669Z,12.23
2019-05-11T16:53:38.983Z,12.30
2019-05-11T16:56:08.433Z,12.20
2019-05-11T16:58:38.037Z,12.35
2019-05-11T17:01:08.644Z,12.30
2019-05-11T17:03:38.433Z,12.53
2019-05-11T17:06:08.337Z,12.40
2019-05-11T17:08:38.374Z,12.58
2019-05-11T17:11:08.204Z,12.32
2019-05-11T17:13:37.982Z,12.18
2019-05-11T17:16:08.596Z,12.20
2019-05-11T17:18:36.978Z,12.37
2019-05-11T17:21:07.732Z,12.40
2019-05-11T17:23:38.105Z,12.51
2019-05-11T17:26:08.490Z,12.36
2019-05-11T17:28:38.408Z,12.39
2019-05-11T17:31:08.071Z,12.43
2019-05-11T17:33:38.480Z,12.32
2019-05-11T17:36:08.431Z,12.28
2019-05-11T17:38:38.917Z,12.35
2019-05-11T17:41:08.493Z,12.49
2019-05-11T17:43:38.699Z,12.58
2019-05-11T17:46:08.040Z,12.43
2019-05-11T17:48:38.785Z,12.47
2019-05-11T17:51:20.900Z,12.46
2019-05-11T17:53:37.845Z,12.19
2019-05-11T17:56:06.503Z,12.37
2019-05-11T17:58:37.688Z,12.32
2019-05-11T18:01:05.358Z,12.29
2019-05-11T18:03:33.880Z,12.28
2019-05-11T18:06:02.332Z,12.19
2019-05-11T18:08:31.148Z,12.28
2019-05-11T18:10:59.836Z,12.60
2019-05-11T18:13:28.607Z,12.68
2019-05-11T18:15:57.844Z,12.58
2019-05-11T18:18:28.918Z,12.81
2019-05-11T18:20:57.891Z,12.72
2019-05-11T18:23:28.209Z,12.70
2019-05-11T18:25:57.056Z,12.57
2019-05-11T18:28:25.549Z,12.71
2019-05-11T18:30:54.115Z,12.49
2019-05-11T18:33:22.635Z,12.55
2019-05-11T18:35:51.132Z,12.40
2019-05-11T18:38:19.570Z,12.34
2019-05-11T18:40:48.653Z,12.29
2019-05-11T18:43:18.856Z,12.20
2019-05-11T18:45:48.877Z,12.55
2019-05-11T18:48:18.565Z,12.42
2019-05-11T18:50:49.119Z,11.96
2019-05-11T18:53:18.687Z,12.01
2019-05-11T18:55:48.601Z,11.74
2019-05-11T18:58:18.406Z,11.79
2019-05-11T19:00:48.824Z,11.75
2019-05-11T19:03:19.342Z,11.72
2019-05-11T19:05:48.180Z,11.79
2019-05-11T19:08:18.766Z,11.80
2019-05-11T19:10:48.878Z,11.46
2019-05-11T19:13:17.025Z,11.38
2019-05-11T19:15:45.454Z,11.33
2019-05-11T19:18:14.128Z,11.50
2019-05-11T19:20:45.856Z,11.19
2019-05-11T19:23:12.709Z,11.31
2019-05-11T19:25:41.196Z,10.98
2019-05-11T19:28:09.668Z,11.04
2019-05-11T19:30:38.404Z,10.82
2019-05-11T19:33:09.679Z,10.79
2019-05-11T19:35:37.870Z,10.65
2019-05-11T19:38:08.501Z,10.65
2019-05-11T19:40:38.407Z,10.63
2019-05-11T19:43:08.190Z,10.52
2019-05-11T19:45:38.367Z,10.68
2019-05-11T19:48:08.370Z,10.83
2019-05-11T19:50:38.206Z,10.69
2019-05-11T19:53:08.395Z,10.85
2019-05-11T19:55:37.185Z,10.95
2019-05-11T19:58:05.650Z,11.14
2019-05-11T20:00:34.078Z,11.15
2019-05-11T20:03:02.605Z,11.36
2019-05-11T20:05:31.369Z,11.07
2019-05-11T20:07:59.919Z,11.09
2019-05-11T20:10:28.621Z,10.95
2019-05-11T20:12:58.741Z,10.86
2019-05-11T20:15:27.200Z,10.94
2019-05-11T20:17:55.743Z,10.99
2019-05-11T20:20:24.178Z,10.87
2019-05-11T20:22:52.618Z,10.80
2019-05-11T20:25:21.091Z,10.58
2019-05-11T20:27:49.530Z,10.47
2019-05-11T20:30:19.124Z,10.07
2019-05-11T20:32:48.829Z,9.99
2019-05-11T20:35:17.975Z,9.70
2019-05-11T20:37:46.516Z,9.48
2019-05-11T20:40:18.219Z,9.34
2019-05-11T20:42:48.297Z,9.32
2019-05-11T20:45:18.519Z,9.25
2019-05-11T20:47:48.675Z,9.16
2019-05-11T20:50:18.393Z,9.06
2019-05-11T20:52:48.007Z,9.13
2019-05-11T20:55:18.261Z,8.96
2019-05-11T20:57:48.274Z,8.88
2019-05-11T21:00:18.721Z,8.90
2019-05-11T21:02:48.665Z,8.73
2019-05-11T21:05:18.204Z,8.71
2019-05-11T21:07:46.920Z,8.56
2019-05-11T21:10:15.556Z,8.60
2019-05-11T21:12:43.989Z,8.63
2019-05-11T21:15:12.870Z,8.55
2019-05-11T21:17:41.350Z,8.60
2019-05-11T21:20:10.326Z,8.42
2019-05-11T21:22:40.645Z,8.33
2019-05-11T21:25:09.947Z,8.31
2019-05-11T21:27:38.836Z,8.13
2019-05-11T21:30:11.000Z,8.11
2019-05-11T21:32:40.991Z,8.13
2019-05-11T21:35:09.615Z,7.97
2019-05-11T21:37:39.024Z,8.00
2019-05-11T21:40:09.008Z,7.84
2019-05-11T21:42:39.042Z,7.83
2019-05-11T21:45:09.772Z,7.77
2019-05-11T21:47:39.256Z,7.70
2019-05-11T21:50:09.341Z,7.75
2019-05-11T21:52:38.632Z,7.59
2019-05-11T21:55:09.800Z,7.58
2019-05-11T21:57:38.522Z,7.54
2019-05-11T22:00:09.991Z,7.48
2019-05-11T22:02:39.120Z,7.24
2019-05-11T22:05:09.130Z,7.25
2019-05-11T22:07:38.818Z,7.33
2019-05-11T22:10:09.441Z,7.31
2019-05-11T22:12:39.107Z,7.45
2019-05-11T22:15:09.278Z,7.40
2019-05-11T22:17:39.246Z,7.26
2019-05-11T22:20:08.935Z,7.23
2019-05-11T22:22:39.070Z,7.12
2019-05-11T22:25:08.874Z,7.04
2019-05-11T22:27:38.907Z,6.94
2019-05-11T22:30:08.708Z,7.01
2019-05-11T22:32:38.330Z,6.86
2019-05-11T22:35:10.183Z,6.92
2019-05-11T22:37:39.203Z,6.83
2019-05-11T22:40:08.876Z,7.00
2019-05-11T22:42:37.827Z,6.75
2019-05-11T22:45:09.623Z,6.60
2019-05-11T22:47:39.262Z,7.03
2019-05-11T22:50:10.070Z,6.71
2019-05-11T22:52:40.536Z,6.71
2019-05-11T22:55:11.856Z,6.80
2019-05-11T22:57:40.029Z,6.72
2019-05-11T23:00:12.042Z,6.51
2019-05-11T23:02:40.528Z,6.55
2019-05-11T23:05:09.705Z,6.41
2019-05-11T23:07:41.340Z,6.66
2019-05-11T23:10:10.617Z,6.53
2019-05-11T23:12:39.129Z,6.65
2019-05-11T23:15:10.132Z,6.40
2019-05-11T23:17:38.962Z,6.41
2019-05-11T23:20:08.377Z,6.21
2019-05-11T23:22:51.310Z,6.26
2019-05-11T23:25:08.745Z,6.42
2019-05-11T23:27:39.339Z,6.25
2019-05-11T23:30:08.833Z,6.28
2019-05-11T23:32:37.665Z,6.15
2019-05-11T23:35:09.533Z,6.10
2019-05-11T23:37:38.688Z,5.98
2019-05-11T23:40:09.637Z,6.05
2019-05-11T23:42:38.381Z,6.17
2019-05-11T23:45:08.580Z,6.24
2019-05-11T23:47:39.269Z,6.43
2019-05-11T23:50:08.636Z,6.49
2019-05-11T23:52:38.226Z,6.86
2019-05-11T23:55:08.501Z,7.00
2019-05-11T23:57:37.981Z,7.11
